createdAt,value
2022-11-23T00:01:35.081Z,6.20
2022-11-23T00:04:06.097Z,6.20
2022-11-23T00:06:34.929Z,6.20
2022-11-23T00:09:03.313Z,6.10
2022-11-23T00:11:31.677Z,6.20
2022-11-23T00:13:59.975Z,6.20
2022-11-23T00:16:29.962Z,6.20
2022-11-23T00:18:59.687Z,6.30
2022-11-23T00:21:30.928Z,6.20
2022-11-23T00:23:59.364Z,6.20
2022-11-23T00:26:27.657Z,6.20
2022-11-23T00:28:56.337Z,6.20
2022-11-23T00:31:25.675Z,6.20
2022-11-23T00:33:55.439Z,6.30
2022-11-23T00:36:25.149Z,6.30
2022-11-23T00:38:55.405Z,6.20
2022-11-23T00:41:25.035Z,6.20
2022-11-23T00:43:53.193Z,6.20
2022-11-23T00:46:23.229Z,6.20
2022-11-23T00:48:52.891Z,6.30
2022-11-23T00:51:23.176Z,6.20
2022-11-23T00:53:52.207Z,6.20
2022-11-23T00:56:22.141Z,6.20
2022-11-23T00:58:51.336Z,6.20
2022-11-23T01:01:20.994Z,6.30
2022-11-23T01:03:50.535Z,6.20
2022-11-23T01:06:21.111Z,6.10
2022-11-23T01:08:51.572Z,6.10
2022-11-23T01:11:21.941Z,5.90
2022-11-23T01:13:50.440Z,6.00
2022-11-23T01:16:24.220Z,6.00
2022-11-23T01:18:54.476Z,6.10
2022-11-23T01:21:22.647Z,6.10
2022-11-23T01:23:50.799Z,6.00
2022-11-23T01:26:19.076Z,6.10
2022-11-23T01:28:48.829Z,5.90
2022-11-23T01:31:18.733Z,5.90
2022-11-23T01:33:47.159Z,5.80
2022-11-23T01:36:17.167Z,5.90
2022-11-23T01:38:45.979Z,5.70
2022-11-23T01:41:17.075Z,5.80
2022-11-23T01:43:45.205Z,5.80
2022-11-23T01:46:15.265Z,5.90
2022-11-23T01:48:46.140Z,6.00
2022-11-23T01:51:18.808Z,6.10
2022-11-23T01:53:48.748Z,6.00
2022-11-23T01:56:21.065Z,6.10
2022-11-23T01:58:53.531Z,6.10
2022-11-23T02:01:23.221Z,6.10
2022-11-23T02:03:53.037Z,6.10
2022-11-23T02:06:22.399Z,6.10
2022-11-23T02:08:51.401Z,6.00
2022-11-23T02:11:19.549Z,5.90
2022-11-23T02:13:51.110Z,5.90
2022-11-23T02:16:19.845Z,5.80
2022-11-23T02:18:52.249Z,5.90
2022-11-23T02:21:20.814Z,5.80
2022-11-23T02:23:55.232Z,5.80
2022-11-23T02:26:27.484Z,5.80
2022-11-23T02:29:00.263Z,5.70
2022-11-23T02:31:28.580Z,5.80
2022-11-23T02:33:56.922Z,5.90
2022-11-23T02:36:37.650Z,5.70
2022-11-23T02:39:09.285Z,5.80
2022-11-23T02:41:41.025Z,5.80
2022-11-23T02:44:15.345Z,5.70
2022-11-23T02:46:43.621Z,5.70
2022-11-23T02:49:11.846Z,5.80
2022-11-23T02:51:40.006Z,5.80
2022-11-23T02:54:08.333Z,5.50
2022-11-23T02:56:36.516Z,5.60
2022-11-23T02:59:06.164Z,5.60
2022-11-23T03:01:34.241Z,5.60
2022-11-23T03:04:02.366Z,5.40
2022-11-23T03:06:30.522Z,5.60
2022-11-23T03:08:58.592Z,5.40
2022-11-23T03:11:26.839Z,5.50
2022-11-23T03:13:55.531Z,5.50
2022-11-23T03:16:25.331Z,5.40
2022-11-23T03:18:53.807Z,5.40
2022-11-23T03:21:21.930Z,5.30
2022-11-23T03:23:50.056Z,5.40
2022-11-23T03:26:18.480Z,5.40
2022-11-23T03:28:46.574Z,5.40
2022-11-23T03:31:14.651Z,5.30
2022-11-23T03:33:44.117Z,5.30
2022-11-23T03:36:12.195Z,5.20
2022-11-23T03:38:40.405Z,5.10
2022-11-23T03:41:09.342Z,5.10
2022-11-23T03:43:37.519Z,5.20
2022-11-23T03:46:05.872Z,5.00
2022-11-23T03:48:33.963Z,5.10
2022-11-23T03:51:03.361Z,5.20
2022-11-23T03:53:31.486Z,5.30
2022-11-23T03:55:59.595Z,5.30
2022-11-23T03:58:27.729Z,5.30
2022-11-23T04:00:56.493Z,5.30
2022-11-23T04:03:24.548Z,5.30
2022-11-23T04:05:52.790Z,5.20
2022-11-23T04:08:22.333Z,5.60
2022-11-23T04:10:50.459Z,5.60
2022-11-23T04:13:18.560Z,5.60
2022-11-23T04:15:46.644Z,5.80
2022-11-23T04:18:14.800Z,5.80
2022-11-23T04:20:42.881Z,5.80
2022-11-23T04:23:13.477Z,5.60
2022-11-23T04:25:43.454Z,5.60
2022-11-23T04:28:11.711Z,5.60
2022-11-23T04:30:39.805Z,5.70
2022-11-23T04:33:07.922Z,5.70
2022-11-23T04:35:37.937Z,5.60
2022-11-23T04:38:06.097Z,5.80
2022-11-23T04:40:34.177Z,5.80
2022-11-23T04:43:04.830Z,5.70
2022-11-23T04:45:33.043Z,5.60
2022-11-23T04:48:01.253Z,5.60
2022-11-23T04:50:29.304Z,5.90
2022-11-23T04:52:57.446Z,6.00
2022-11-23T04:55:25.555Z,5.90
2022-11-23T04:57:53.610Z,5.90
2022-11-23T05:00:23.512Z,5.60
2022-11-23T05:02:51.594Z,5.40
2022-11-23T05:05:19.757Z,5.50
2022-11-23T05:07:47.943Z,5.70
2022-11-23T05:10:16.249Z,5.80
2022-11-23T05:12:44.382Z,5.70
2022-11-23T05:15:14.761Z,5.50
2022-11-23T05:17:44.248Z,5.60
2022-11-23T05:20:13.075Z,5.70
2022-11-23T05:22:41.315Z,5.60
2022-11-23T05:25:10.330Z,5.80
2022-11-23T05:27:38.613Z,6.00
2022-11-23T05:30:07.985Z,6.10
2022-11-23T05:32:36.388Z,5.90
2022-11-23T05:35:06.545Z,5.80
2022-11-23T05:37:34.902Z,5.80
2022-11-23T05:40:03.310Z,5.80
2022-11-23T05:42:31.488Z,6.00
2022-11-23T05:44:59.574Z,5.90
2022-11-23T05:47:28.319Z,6.00
2022-11-23T05:49:56.437Z,5.90
2022-11-23T05:52:27.959Z,5.90
2022-11-23T05:54:56.169Z,5.80
2022-11-23T05:57:24.498Z,5.90
2022-11-23T05:59:53.140Z,5.80
2022-11-23T06:02:22.359Z,5.80
2022-11-23T06:04:50.499Z,5.60
2022-11-23T06:07:18.752Z,5.90
2022-11-23T06:09:48.226Z,6.00
2022-11-23T06:12:16.359Z,6.00
2022-11-23T06:14:44.499Z,6.00
2022-11-23T06:17:12.717Z,5.90
2022-11-23T06:19:40.968Z,5.80
2022-11-23T06:22:09.943Z,5.80
2022-11-23T06:24:40.482Z,5.90
2022-11-23T06:27:12.925Z,5.90
2022-11-23T06:29:43.477Z,5.80
2022-11-23T06:32:11.665Z,5.90
2022-11-23T06:34:39.742Z,6.00
2022-11-23T06:37:07.973Z,6.00
2022-11-23T06:39:36.204Z,6.00
2022-11-23T06:42:23.770Z,5.90
2022-11-23T06:44:54.566Z,5.90
2022-11-23T06:47:26.426Z,5.80
2022-11-23T06:49:54.893Z,5.80
2022-11-23T06:52:23.096Z,5.60
2022-11-23T06:54:51.247Z,5.90
2022-11-23T06:57:20.314Z,5.90
2022-11-23T06:59:48.565Z,6.00
2022-11-23T07:02:18.131Z,6.00
2022-11-23T07:04:46.384Z,6.00
2022-11-23T07:07:14.618Z,5.90
2022-11-23T07:09:42.870Z,5.90
2022-11-23T07:12:11.026Z,5.80
2022-11-23T07:14:39.337Z,5.70
2022-11-23T07:17:07.498Z,5.70
2022-11-23T07:19:36.974Z,5.70
2022-11-23T07:22:05.302Z,5.90
2022-11-23T07:24:39.494Z,6.00
2022-11-23T07:27:08.752Z,5.90
2022-11-23T07:29:36.871Z,5.90
2022-11-23T07:32:06.938Z,6.00
2022-11-23T07:34:36.784Z,5.90
2022-11-23T07:37:05.171Z,5.90
2022-11-23T07:39:55.777Z,6.00
2022-11-23T07:42:33.616Z,6.00
2022-11-23T07:45:03.043Z,5.90
2022-11-23T07:47:31.323Z,6.00
2022-11-23T07:50:00.837Z,6.10
2022-11-23T07:52:28.968Z,6.20
2022-11-23T07:54:57.125Z,6.40
2022-11-23T07:57:25.191Z,6.50
2022-11-23T07:59:53.480Z,6.60
2022-11-23T08:02:22.257Z,6.80
2022-11-23T08:04:50.408Z,6.80
2022-11-23T08:07:19.945Z,6.90
2022-11-23T08:09:48.072Z,6.90
2022-11-23T08:12:16.297Z,7.20
2022-11-23T08:14:44.433Z,7.40
2022-11-23T08:17:12.782Z,7.40
2022-11-23T08:19:41.263Z,7.50
2022-11-23T08:22:12.353Z,7.60
2022-11-23T08:24:45.172Z,7.70
2022-11-23T08:27:13.405Z,7.80
2022-11-23T08:29:41.529Z,7.80
2022-11-23T08:32:09.703Z,7.80
2022-11-23T08:34:37.872Z,7.80
2022-11-23T08:37:06.116Z,7.80
2022-11-23T08:39:34.353Z,7.80
2022-11-23T08:42:04.570Z,7.80
2022-11-23T08:44:33.325Z,7.80
2022-11-23T08:47:02.670Z,7.70
2022-11-23T08:49:30.767Z,7.60
2022-11-23T08:52:00.046Z,7.60
2022-11-23T08:54:28.157Z,7.60
2022-11-23T08:56:56.271Z,7.50
2022-11-23T08:59:26.163Z,7.60
2022-11-23T09:01:54.450Z,7.70
2022-11-23T09:04:22.854Z,7.70
2022-11-23T09:06:51.146Z,7.60
2022-11-23T09:09:19.499Z,7.60
2022-11-23T09:11:47.964Z,7.70
2022-11-23T09:14:17.027Z,7.60
2022-11-23T09:16:46.471Z,7.60
2022-11-23T09:19:15.267Z,7.80
2022-11-23T09:21:43.663Z,7.90
2022-11-23T09:24:12.682Z,8.10
2022-11-23T09:26:41.481Z,8.70
2022-11-23T09:29:10.430Z,9.20
2022-11-23T09:31:38.597Z,10.00
2022-11-23T09:34:08.197Z,10.30
2022-11-23T09:36:36.403Z,10.90
2022-11-23T09:39:04.980Z,11.50
2022-11-23T09:41:56.033Z,12.00
2022-11-23T09:44:32.834Z,12.90
2022-11-23T09:47:17.226Z,13.70
2022-11-23T09:49:55.569Z,14.40
2022-11-23T09:52:25.406Z,14.90
2022-11-23T09:54:56.739Z,15.40
2022-11-23T09:57:29.243Z,16.90
2022-11-23T10:00:02.116Z,17.40
2022-11-23T10:02:30.481Z,17.00
2022-11-23T10:05:01.989Z,18.10
2022-11-23T10:07:44.507Z,19.10
2022-11-23T10:10:29.672Z,20.40
2022-11-23T10:13:10.811Z,20.00
2022-11-23T10:15:46.830Z,18.90
2022-11-23T10:18:31.673Z,19.30
2022-11-23T10:21:15.760Z,19.50
2022-11-23T10:24:05.286Z,20.10
2022-11-23T10:26:35.451Z,20.00
2022-11-23T10:29:14.168Z,19.30
2022-11-23T10:31:46.182Z,18.50
2022-11-23T10:34:16.086Z,19.00
2022-11-23T10:36:45.867Z,18.80
2022-11-23T10:39:21.366Z,18.20
2022-11-23T10:41:50.352Z,17.40
2022-11-23T10:44:31.441Z,16.50
2022-11-23T10:47:00.437Z,15.10
2022-11-23T10:49:30.252Z,14.70
2022-11-23T10:52:03.658Z,14.20
2022-11-23T10:54:34.485Z,14.30
2022-11-23T10:57:04.852Z,14.20
2022-11-23T10:59:38.178Z,14.50
2022-11-23T11:02:17.808Z,13.90
2022-11-23T11:04:46.921Z,13.90
2022-11-23T11:07:25.354Z,14.90
2022-11-23T11:09:56.812Z,16.60
2022-11-23T11:12:25.111Z,17.80
2022-11-23T11:15:11.490Z,16.90
2022-11-23T11:17:41.074Z,14.80
2022-11-23T11:20:34.725Z,13.80
2022-11-23T11:23:16.687Z,13.40
2022-11-23T11:25:45.721Z,13.30
2022-11-23T11:28:25.958Z,13.30
2022-11-23T11:31:04.391Z,13.20
2022-11-23T11:33:38.665Z,13.20
2022-11-23T11:36:09.616Z,13.00
2022-11-23T11:38:39.799Z,13.10
2022-11-23T11:41:12.136Z,12.40
2022-11-23T11:43:45.563Z,12.30
2022-11-23T11:46:32.583Z,12.70
2022-11-23T11:49:07.115Z,12.90
2022-11-23T11:51:40.365Z,13.10
2022-11-23T11:54:19.907Z,12.80
2022-11-23T11:56:52.859Z,12.60
2022-11-23T11:59:27.566Z,12.50
2022-11-23T12:02:01.578Z,12.70
2022-11-23T12:04:36.932Z,12.60
2022-11-23T12:07:10.202Z,12.70
2022-11-23T12:09:44.920Z,12.60
2022-11-23T12:12:17.847Z,12.80
2022-11-23T12:14:47.816Z,12.60
2022-11-23T12:17:36.490Z,12.60
2022-11-23T12:20:14.937Z,12.70
2022-11-23T12:22:57.479Z,12.40
2022-11-23T12:25:36.678Z,12.50
2022-11-23T12:28:24.680Z,12.40
2022-11-23T12:31:03.841Z,12.30
2022-11-23T12:34:05.520Z,11.70
2022-11-23T12:36:56.003Z,12.10
2022-11-23T12:39:58.869Z,12.20
2022-11-23T12:42:39.727Z,12.10
2022-11-23T12:45:31.923Z,11.90
2022-11-23T12:48:15.441Z,12.10
2022-11-23T12:50:49.561Z,12.00
2022-11-23T12:53:32.734Z,12.20
2022-11-23T12:56:11.899Z,12.20
2022-11-23T12:58:43.970Z,12.30
2022-11-23T13:01:16.141Z,12.30
2022-11-23T13:04:21.295Z,12.10
2022-11-23T13:07:29.353Z,11.60
2022-11-23T13:10:17.533Z,11.80
2022-11-23T13:13:04.638Z,11.80
2022-11-23T13:15:47.687Z,11.50
2022-11-23T13:18:37.968Z,11.70
2022-11-23T13:21:19.425Z,11.60
2022-11-23T13:23:47.682Z,11.50
2022-11-23T13:26:17.892Z,11.50
2022-11-23T13:28:47.157Z,11.50
2022-11-23T13:31:26.350Z,11.60
2022-11-23T13:33:56.567Z,11.50
2022-11-23T13:40:04.851Z,11.60
2022-11-23T13:42:35.790Z,11.80
2022-11-23T13:45:28.692Z,11.70
2022-11-23T13:48:49.047Z,11.70
2022-11-23T13:51:06.993Z,11.60
2022-11-23T13:53:37.115Z,11.60
2022-11-23T13:56:30.818Z,11.70
2022-11-23T13:59:01.073Z,11.80
2022-11-23T14:01:59.812Z,11.90
2022-11-23T14:04:31.258Z,11.70
2022-11-23T14:07:03.295Z,11.80
2022-11-23T14:09:37.094Z,11.70
2022-11-23T14:12:15.363Z,11.60
2022-11-23T14:14:50.699Z,11.50
2022-11-23T14:17:58.598Z,11.40
2022-11-23T14:20:55.088Z,11.40
2022-11-23T14:24:15.981Z,11.10
2022-11-23T14:26:53.386Z,11.00
2022-11-23T14:29:30.285Z,11.20
2022-11-23T14:32:14.679Z,11.30
2022-11-23T14:34:52.138Z,11.30
2022-11-23T14:37:38.241Z,11.30
2022-11-23T14:40:21.671Z,11.20
2022-11-23T14:42:54.692Z,11.20
2022-11-23T14:45:24.786Z,11.20
2022-11-23T14:47:52.972Z,11.20
2022-11-23T14:50:26.464Z,11.00
2022-11-23T14:53:00.974Z,11.00
2022-11-23T14:55:31.612Z,10.90
2022-11-23T14:58:02.785Z,10.80
2022-11-23T15:00:37.277Z,10.60
2022-11-23T15:03:34.334Z,10.50
2022-11-23T15:06:06.033Z,10.60
2022-11-23T15:08:43.143Z,10.70
2022-11-23T15:11:15.412Z,10.50
2022-11-23T15:13:46.172Z,10.30
2022-11-23T15:16:16.450Z,10.40
2022-11-23T15:18:45.537Z,10.40
2022-11-23T15:21:26.520Z,10.30
2022-11-23T15:24:00.146Z,10.20
2022-11-23T15:26:48.811Z,10.20
2022-11-23T15:29:33.301Z,10.30
2022-11-23T15:34:51.289Z,10.20
2022-11-23T15:37:20.298Z,10.00
2022-11-23T15:39:50.598Z,9.90
2022-11-23T15:42:20.555Z,10.00
2022-11-23T15:44:51.153Z,9.80
2022-11-23T15:47:27.581Z,9.80
2022-11-23T15:50:01.249Z,9.80
2022-11-23T15:52:34.301Z,9.80
2022-11-23T15:55:09.806Z,9.70
2022-11-23T15:57:40.448Z,9.80
2022-11-23T16:00:10.609Z,9.70
2022-11-23T16:02:39.078Z,9.70
2022-11-23T16:05:14.698Z,9.80
2022-11-23T16:07:54.862Z,9.70
2022-11-23T16:10:25.974Z,9.70
2022-11-23T16:12:55.919Z,9.70
2022-11-23T16:15:41.915Z,9.70
2022-11-23T16:18:22.940Z,9.60
2022-11-23T16:20:53.928Z,9.60
2022-11-23T16:23:24.675Z,9.90
2022-11-23T16:26:00.779Z,10.00
2022-11-23T16:28:31.681Z,9.80
2022-11-23T16:31:00.905Z,9.60
2022-11-23T16:33:30.428Z,9.60
2022-11-23T16:35:58.719Z,9.90
2022-11-23T16:38:26.946Z,9.90
2022-11-23T16:40:56.433Z,10.00
2022-11-23T16:43:26.072Z,10.10
2022-11-23T16:45:55.261Z,10.10
2022-11-23T16:48:44.563Z,10.10
2022-11-23T16:51:14.513Z,10.10
2022-11-23T16:54:11.947Z,10.10
2022-11-23T16:56:32.814Z,10.00
2022-11-23T16:59:02.411Z,9.80
2022-11-23T17:01:32.678Z,9.80
2022-11-23T17:04:01.072Z,9.60
2022-11-23T17:06:29.522Z,9.70
2022-11-23T17:09:06.195Z,9.60
2022-11-23T17:11:38.427Z,9.50
2022-11-23T17:14:08.593Z,9.50
2022-11-23T17:16:36.824Z,9.50
2022-11-23T17:19:05.130Z,9.30
2022-11-23T17:21:33.242Z,9.40
2022-11-23T17:24:01.585Z,9.30
2022-11-23T17:26:36.372Z,9.40
2022-11-23T17:29:08.458Z,9.40
2022-11-23T17:31:36.536Z,9.40
2022-11-23T17:34:04.675Z,9.10
2022-11-23T17:36:33.521Z,9.00
2022-11-23T17:39:01.927Z,9.00
2022-11-23T17:41:30.079Z,9.10
2022-11-23T17:43:59.683Z,9.00
2022-11-23T17:46:33.044Z,8.90
2022-11-23T17:49:02.501Z,8.80
2022-11-23T17:51:31.049Z,8.90
2022-11-23T17:53:59.264Z,8.80
2022-11-23T17:56:28.102Z,8.80
2022-11-23T17:58:56.355Z,8.80
2022-11-23T18:01:24.968Z,8.80
2022-11-23T18:04:00.833Z,8.80
2022-11-23T18:06:29.737Z,8.80
2022-11-23T18:08:58.354Z,8.70
2022-11-23T18:11:28.458Z,8.60
2022-11-23T18:13:56.731Z,8.50
2022-11-23T18:16:25.734Z,8.40
2022-11-23T18:18:53.998Z,8.50
2022-11-23T18:21:23.478Z,8.30
2022-11-23T18:23:51.683Z,8.40
2022-11-23T18:26:21.505Z,8.40
2022-11-23T18:28:50.285Z,8.10
2022-11-23T18:31:18.949Z,8.20
2022-11-23T18:33:47.776Z,8.30
2022-11-23T18:36:15.963Z,8.30
2022-11-23T18:38:45.995Z,8.40
2022-11-23T18:41:16.671Z,8.50
2022-11-23T18:43:45.188Z,8.40
2022-11-23T18:46:19.071Z,8.50
2022-11-23T18:48:48.764Z,8.50
2022-11-23T18:51:17.374Z,8.40
2022-11-23T18:53:47.994Z,8.40
2022-11-23T18:56:16.464Z,8.20
2022-11-23T18:58:46.054Z,8.20
2022-11-23T19:01:17.861Z,8.20
2022-11-23T19:03:47.629Z,8.10
2022-11-23T19:06:17.028Z,8.00
2022-11-23T19:08:48.224Z,8.10
2022-11-23T19:11:19.407Z,8.10
2022-11-23T19:13:50.750Z,8.00
2022-11-23T19:16:22.942Z,8.10
2022-11-23T19:18:55.606Z,8.00
2022-11-23T19:21:26.022Z,8.10
2022-11-23T19:23:56.771Z,8.20
2022-11-23T19:26:26.277Z,8.10
2022-11-23T19:28:55.422Z,8.10
2022-11-23T19:31:26.530Z,8.10
2022-11-23T19:33:57.839Z,8.20
2022-11-23T19:36:27.167Z,8.20
2022-11-23T19:39:00.917Z,8.30
2022-11-23T19:41:31.041Z,8.20
2022-11-23T19:44:00.862Z,8.20
2022-11-23T19:46:30.047Z,8.30
2022-11-23T19:48:59.177Z,8.30
2022-11-23T19:51:28.367Z,8.20
2022-11-23T19:53:58.391Z,8.30
2022-11-23T19:56:29.329Z,8.20
2022-11-23T19:58:59.011Z,8.40
2022-11-23T20:01:29.307Z,8.40
2022-11-23T20:04:02.860Z,8.40
2022-11-23T20:06:37.180Z,8.50
2022-11-23T20:09:09.145Z,8.40
2022-11-23T20:11:39.332Z,8.60
2022-11-23T20:14:07.772Z,8.60
2022-11-23T20:16:36.012Z,8.60
2022-11-23T20:19:06.328Z,8.60
2022-11-23T20:21:35.541Z,8.60
2022-11-23T20:24:07.157Z,8.60
2022-11-23T20:26:36.374Z,8.70
2022-11-23T20:29:05.907Z,8.70
2022-11-23T20:31:34.798Z,8.80
2022-11-23T20:34:06.853Z,8.70
2022-11-23T20:36:37.460Z,8.80
2022-11-23T20:39:10.908Z,8.80
2022-11-23T20:41:39.290Z,9.00
2022-11-23T20:44:11.038Z,9.00
2022-11-23T20:49:27.981Z,9.10
2022-11-23T20:51:56.212Z,9.10
2022-11-23T20:54:25.775Z,9.20
2022-11-23T20:56:53.989Z,9.10
2022-11-23T20:59:23.892Z,9.10
2022-11-23T21:01:52.535Z,9.10
2022-11-23T21:04:21.201Z,9.20
2022-11-23T21:06:49.424Z,9.20
2022-11-23T21:09:18.136Z,9.20
2022-11-23T21:12:04.441Z,9.10
2022-11-23T21:14:34.145Z,9.10
2022-11-23T21:17:02.633Z,9.10
2022-11-23T21:19:32.789Z,9.00
2022-11-23T21:22:05.613Z,9.10
2022-11-23T21:24:35.226Z,9.00
2022-11-23T21:27:06.681Z,9.10
2022-11-23T21:29:34.949Z,9.00
2022-11-23T21:32:03.027Z,9.00
2022-11-23T21:34:32.248Z,9.00
2022-11-23T21:37:01.113Z,9.00
2022-11-23T21:39:31.866Z,8.90
2022-11-23T21:42:00.162Z,8.90
2022-11-23T21:44:29.781Z,8.90
2022-11-23T21:46:58.274Z,9.00
2022-11-23T21:49:28.389Z,9.10
2022-11-23T21:51:56.633Z,9.10
2022-11-23T21:54:24.755Z,9.10
2022-11-23T21:56:52.883Z,9.10
2022-11-23T21:59:22.187Z,9.00
2022-11-23T22:01:54.269Z,9.00
2022-11-23T22:04:22.478Z,8.90
2022-11-23T22:06:50.664Z,8.80
2022-11-23T22:09:18.966Z,8.90
2022-11-23T22:11:47.099Z,8.70
2022-11-23T22:14:17.130Z,8.60
2022-11-23T22:16:46.684Z,8.70
2022-11-23T22:19:18.333Z,8.70
2022-11-23T22:21:47.693Z,8.60
2022-11-23T22:24:18.301Z,8.70
2022-11-23T22:26:47.722Z,8.70
2022-11-23T22:29:16.334Z,8.70
2022-11-23T22:31:44.916Z,8.70
2022-11-23T22:34:14.360Z,8.70
2022-11-23T22:36:44.121Z,8.70
2022-11-23T22:39:12.444Z,8.70
2022-11-23T22:41:40.946Z,8.70
2022-11-23T22:44:10.862Z,8.70
2022-11-23T22:46:39.845Z,8.60
2022-11-23T22:49:08.094Z,8.40
2022-11-23T22:51:36.248Z,8.40
2022-11-23T22:54:06.200Z,8.50
2022-11-23T22:56:34.590Z,8.40
2022-11-23T22:59:02.678Z,8.50
2022-11-23T23:01:31.844Z,8.50
2022-11-23T23:04:01.893Z,8.40
2022-11-23T23:06:33.683Z,8.40
2022-11-23T23:09:02.822Z,8.50
2022-11-23T23:11:33.237Z,8.60
2022-11-23T23:14:01.798Z,8.60
2022-11-23T23:16:30.388Z,8.60
2022-11-23T23:18:59.472Z,8.40
2022-11-23T23:21:29.535Z,8.60
2022-11-23T23:24:00.172Z,8.50
2022-11-23T23:26:29.396Z,8.50
2022-11-23T23:29:00.884Z,8.50
2022-11-23T23:31:30.746Z,8.50
2022-11-23T23:34:00.890Z,8.60
2022-11-23T23:36:29.593Z,8.50
2022-11-23T23:38:58.352Z,8.50
2022-11-23T23:41:26.584Z,8.60
2022-11-23T23:43:54.815Z,8.60
2022-11-23T23:46:24.424Z,8.50
2022-11-23T23:48:52.822Z,8.50
2022-11-23T23:51:22.625Z,8.50
2022-11-23T23:53:51.891Z,8.30
2022-11-23T23:56:22.021Z,8.30
2022-11-23T23:58:50.375Z,8.30
